createdAt,value
2022-08-07T00:02:37.104Z,45.01
2022-08-07T00:07:20.765Z,45.51
2022-08-07T00:12:23.038Z,46.23
2022-08-07T00:17:27.587Z,46.38
2022-08-07T00:22:36.817Z,47.56
2022-08-07T00:27:53.125Z,46.62
2022-08-07T00:32:59.362Z,47.38
2022-08-07T00:38:01.375Z,47.28
2022-08-07T00:43:02.959Z,46.78
2022-08-07T00:48:10.327Z,46.90
2022-08-07T00:53:13.103Z,47.74
2022-08-07T00:58:14.774Z,48.20
2022-08-07T01:03:16.679Z,49.52
2022-08-07T01:08:18.401Z,49.12
2022-08-07T01:13:21.883Z,48.81
2022-08-07T01:18:24.847Z,48.94
2022-08-07T01:23:36.333Z,49.16
2022-08-07T01:28:45.912Z,50.09
2022-08-07T01:33:54.025Z,50.07
2022-08-07T01:39:00.953Z,50.82
2022-08-07T01:44:03.419Z,52.37
2022-08-07T01:49:08.399Z,52.22
2022-08-07T01:54:19.263Z,51.65
2022-08-07T01:59:43.778Z,53.70
2022-08-07T02:04:56.411Z,52.48
2022-08-07T02:10:04.312Z,51.73
2022-08-07T02:15:11.724Z,51.94
2022-08-07T02:20:20.037Z,52.51
2022-08-07T02:25:32.220Z,53.13
2022-08-07T02:30:50.608Z,52.95
2022-08-07T02:36:30.673Z,53.57
2022-08-07T02:41:21.825Z,54.92
2022-08-07T02:46:25.767Z,55.01
2022-08-07T02:51:42.492Z,55.02
2022-08-07T02:56:53.870Z,56.90
2022-08-07T03:01:56.412Z,55.17
2022-08-07T03:07:03.445Z,55.99
2022-08-07T03:12:22.670Z,56.15
2022-08-07T03:17:52.963Z,55.55
2022-08-07T03:22:57.764Z,56.40
2022-08-07T03:28:09.710Z,56.84
2022-08-07T03:33:22.940Z,56.64
2022-08-07T03:38:29.877Z,56.28
2022-08-07T03:43:37.303Z,56.29
2022-08-07T03:48:45.515Z,56.66
2022-08-07T03:54:33.671Z,56.88
2022-08-07T03:59:26.913Z,57.93
2022-08-07T04:04:29.053Z,56.81
2022-08-07T04:09:45.103Z,57.27
2022-08-07T04:14:54.384Z,57.24
2022-08-07T04:19:58.405Z,57.81
2022-08-07T04:25:02.433Z,58.11
2022-08-07T04:30:11.793Z,56.63
2022-08-07T04:35:25.514Z,58.03
2022-08-07T04:40:29.987Z,57.19
2022-08-07T04:46:01.648Z,56.82
2022-08-07T04:51:09.268Z,55.98
2022-08-07T04:58:10.351Z,56.04
2022-08-07T05:02:02.255Z,55.93
2022-08-07T05:07:36.882Z,55.65
2022-08-07T05:12:59.905Z,55.01
2022-08-07T05:18:09.198Z,54.96
2022-08-07T05:23:23.090Z,53.75
2022-08-07T05:28:33.230Z,53.36
2022-08-07T05:33:36.863Z,52.66
2022-08-07T05:39:01.206Z,52.70
2022-08-07T05:44:12.254Z,52.49
2022-08-07T05:49:17.366Z,51.04
2022-08-07T05:54:31.417Z,50.74
2022-08-07T05:59:57.812Z,50.90
2022-08-07T06:05:28.166Z,49.94
2022-08-07T06:10:33.867Z,49.82
2022-08-07T06:15:42.538Z,50.02
2022-08-07T06:20:49.831Z,50.25
2022-08-07T06:26:13.776Z,49.09
2022-08-07T06:31:16.277Z,49.11
2022-08-07T06:36:34.984Z,48.89
2022-08-07T06:42:02.510Z,47.70
2022-08-07T06:47:24.375Z,49.06
2022-08-07T06:52:35.977Z,47.35
2022-08-07T06:57:47.771Z,47.22
2022-08-07T07:03:01.315Z,45.68
2022-08-07T07:08:18.789Z,45.33
2022-08-07T07:13:43.562Z,45.77
2022-08-07T07:18:59.762Z,45.08
2022-08-07T07:24:10.324Z,44.81
2022-08-07T07:29:39.251Z,43.49
2022-08-07T07:34:39.606Z,43.94
2022-08-07T07:39:52.535Z,43.99
2022-08-07T07:44:58.739Z,45.91
2022-08-07T07:50:35.221Z,43.44
2022-08-07T07:55:24.052Z,43.08
2022-08-07T08:00:29.555Z,43.22
2022-08-07T08:05:54.252Z,42.50
2022-08-07T08:10:57.260Z,42.66
2022-08-07T08:16:01.884Z,41.43
2022-08-07T08:21:04.064Z,40.90
2022-08-07T08:26:28.739Z,39.94
2022-08-07T08:31:59.025Z,39.48
2022-08-07T08:37:09.926Z,38.89
2022-08-07T08:42:46.911Z,38.44
2022-08-07T08:48:08.753Z,37.94
2022-08-07T08:53:22.643Z,36.96
2022-08-07T08:58:30.044Z,36.57
2022-08-07T09:03:49.729Z,36.18
2022-08-07T09:09:13.557Z,36.18
2022-08-07T09:14:41.593Z,35.88
2022-08-07T09:19:56.511Z,36.33
2022-08-07T09:25:17.555Z,36.53
2022-08-07T09:30:20.736Z,35.73
2022-08-07T09:36:04.709Z,35.67
2022-08-07T09:41:58.638Z,35.42
2022-08-07T09:47:49.911Z,35.12
2022-08-07T09:52:53.872Z,34.52
2022-08-07T09:57:58.847Z,34.90
2022-08-07T10:03:08.511Z,35.03
2022-08-07T10:08:39.518Z,34.43
2022-08-07T10:14:01.294Z,33.45
2022-08-07T10:19:37.734Z,33.46
2022-08-07T10:24:46.306Z,33.80
2022-08-07T10:30:06.565Z,33.66
2022-08-07T10:35:55.289Z,33.56
2022-08-07T10:40:56.425Z,33.88
2022-08-07T10:46:00.830Z,33.19
2022-08-07T10:51:16.784Z,33.08
2022-08-07T10:57:09.795Z,33.64
2022-08-07T11:02:33.410Z,32.92
2022-08-07T11:07:58.899Z,33.97
2022-08-07T11:14:43.389Z,33.40
2022-08-07T11:18:39.720Z,32.31
2022-08-07T11:23:52.698Z,33.05
2022-08-07T11:29:42.152Z,33.32
2022-08-07T11:34:49.236Z,33.83
2022-08-07T11:40:28.574Z,32.14
2022-08-07T11:45:36.486Z,32.47
2022-08-07T11:50:57.854Z,33.19
2022-08-07T11:56:26.950Z,32.28
2022-08-07T12:02:00.119Z,32.58
2022-08-07T12:07:17.307Z,32.64
2022-08-07T12:12:28.284Z,33.10
2022-08-07T12:17:58.617Z,33.17
2022-08-07T12:23:14.506Z,33.21
2022-08-07T12:28:33.477Z,32.92
2022-08-07T12:34:01.174Z,33.14
2022-08-07T12:38:57.866Z,33.13
2022-08-07T12:44:04.067Z,32.80
2022-08-07T12:49:25.315Z,32.89
2022-08-07T12:55:03.972Z,32.51
2022-08-07T13:00:16.263Z,32.27
2022-08-07T13:06:03.598Z,32.32
2022-08-07T13:11:24.936Z,32.10
2022-08-07T13:16:31.634Z,32.44
2022-08-07T13:22:06.146Z,32.80
2022-08-07T13:28:05.467Z,32.81
2022-08-07T13:34:29.795Z,32.40
2022-08-07T13:38:36.166Z,32.51
2022-08-07T13:43:52.511Z,31.85
2022-08-07T13:48:59.547Z,32.04
2022-08-07T13:54:07.175Z,32.09
2022-08-07T13:59:33.223Z,32.73
2022-08-07T14:04:49.427Z,31.91
2022-08-07T14:10:02.659Z,32.16
2022-08-07T14:15:31.636Z,31.56
2022-08-07T14:20:44.388Z,32.26
2022-08-07T14:26:11.306Z,32.29
2022-08-07T14:31:43.440Z,31.96
2022-08-07T14:36:56.202Z,32.22
2022-08-07T14:42:19.553Z,32.37
2022-08-07T14:47:23.503Z,31.86
2022-08-07T14:52:30.959Z,32.48
2022-08-07T14:57:58.526Z,31.48
2022-08-07T15:02:57.541Z,30.90
2022-08-07T15:07:59.915Z,31.47
2022-08-07T15:13:11.379Z,32.71
2022-08-07T15:25:16.237Z,32.59
2022-08-07T15:30:06.372Z,31.79
2022-08-07T15:34:26.144Z,32.15
2022-08-07T15:39:28.787Z,31.88
2022-08-07T15:44:52.199Z,31.79
2022-08-07T15:50:05.326Z,31.68
2022-08-07T15:55:12.224Z,30.79
2022-08-07T16:00:31.847Z,30.92
2022-08-07T16:05:37.418Z,31.92
2022-08-07T16:10:42.551Z,30.84
2022-08-07T16:15:57.303Z,30.86
2022-08-07T16:22:01.384Z,31.26
2022-08-07T16:27:03.501Z,31.44
2022-08-07T16:32:35.068Z,30.70
2022-08-07T16:38:18.761Z,31.04
2022-08-07T16:44:03.701Z,31.03
2022-08-07T16:50:20.232Z,30.39
2022-08-07T16:54:58.435Z,30.82
2022-08-07T17:00:29.410Z,31.50
2022-08-07T17:06:26.545Z,31.36
2022-08-07T17:11:21.506Z,30.70
2022-08-07T17:16:25.038Z,31.79
2022-08-07T17:21:50.914Z,32.44
2022-08-07T17:27:05.252Z,32.40
2022-08-07T17:32:30.328Z,32.94
2022-08-07T17:38:08.152Z,33.26
2022-08-07T17:43:21.986Z,33.46
2022-08-07T17:49:10.850Z,33.90
2022-08-07T17:54:29.689Z,33.57
2022-08-07T17:59:42.561Z,33.57
2022-08-07T18:04:51.982Z,34.02
2022-08-07T18:10:06.197Z,33.82
2022-08-07T18:15:14.811Z,34.40
2022-08-07T18:21:06.462Z,34.80
2022-08-07T18:25:49.523Z,35.20
2022-08-07T18:31:12.096Z,34.72
2022-08-07T18:36:33.181Z,34.08
2022-08-07T18:41:46.920Z,34.37
2022-08-07T18:47:21.101Z,34.80
2022-08-07T18:52:54.196Z,35.29
2022-08-07T18:58:02.164Z,35.86
2022-08-07T19:03:15.828Z,36.32
2022-08-07T19:08:40.049Z,36.02
2022-08-07T19:13:45.255Z,36.13
2022-08-07T19:19:03.005Z,36.27
2022-08-07T19:24:10.920Z,36.71
2022-08-07T19:30:58.757Z,36.52
2022-08-07T19:34:38.826Z,37.15
2022-08-07T19:39:56.275Z,37.38
2022-08-07T19:45:09.608Z,37.17
2022-08-07T19:50:41.602Z,37.58
2022-08-07T19:55:56.771Z,37.89
2022-08-07T20:00:57.144Z,37.85
2022-08-07T20:06:03.006Z,38.17
2022-08-07T20:11:12.244Z,38.55
2022-08-07T20:16:35.005Z,38.69
2022-08-07T20:21:47.591Z,38.64
2022-08-07T20:26:54.869Z,39.29
2022-08-07T20:31:59.846Z,39.59
2022-08-07T20:37:05.540Z,39.32
2022-08-07T20:42:11.183Z,39.37
2022-08-07T20:47:14.662Z,39.51
2022-08-07T20:52:17.732Z,39.61
2022-08-07T20:57:28.810Z,40.07
2022-08-07T21:02:55.077Z,39.98
2022-08-07T21:08:01.012Z,40.65
2022-08-07T21:13:07.604Z,41.14
2022-08-07T21:18:17.569Z,41.23
2022-08-07T21:23:50.204Z,41.62
2022-08-07T21:28:58.210Z,41.69
2022-08-07T21:34:08.131Z,41.86
2022-08-07T21:39:45.433Z,42.42
2022-08-07T21:44:55.390Z,42.80
2022-08-07T21:50:14.604Z,42.79
2022-08-07T21:55:27.831Z,42.87
2022-08-07T22:00:32.471Z,42.80
2022-08-07T22:05:49.749Z,43.34
2022-08-07T22:10:55.348Z,43.88
2022-08-07T22:16:38.768Z,43.75
2022-08-07T22:22:01.837Z,44.39
2022-08-07T22:27:04.902Z,44.60
2022-08-07T22:32:30.781Z,44.62
2022-08-07T22:38:02.953Z,44.20
2022-08-07T22:43:33.889Z,44.40
2022-08-07T22:49:06.560Z,45.32
2022-08-07T22:54:34.444Z,45.33
2022-08-07T22:59:51.897Z,46.10
2022-08-07T23:06:07.670Z,46.42
2022-08-07T23:10:41.293Z,46.15
2022-08-07T23:16:48.499Z,46.48
2022-08-07T23:21:58.718Z,46.77
2022-08-07T23:27:33.856Z,46.94
2022-08-07T23:34:35.634Z,46.66
2022-08-07T23:38:44.748Z,47.10
2022-08-07T23:44:09.621Z,47.17
2022-08-07T23:49:50.095Z,47.64
2022-08-07T23:55:02.261Z,48.02
